Time;durP1;ratioP1;P1;durP2;ratioP2;P2;SDS_P1;SDS_P2;PMS_P1;PMS_P2;Temp;Humidity;BMP_temperature;BMP_pressure;BME280_temperature;BME280_humidity;BME280_pressure;Samples;Min_cycle;Max_cycle;Signal;HPM_P1;HPM_P2
2022/01/08 00:00:16;;;;;;;;;;;;;;;27.48;60.86;97113.45;618824;229;64771;-66
2022/01/08 00:02:44;;;;;;;;;;;;;;;27.47;61.57;97106.45;618811;229;65050;-67
2022/01/08 00:05:12;;;;;;;;;;;;;;;27.45;61.00;97104.08;618910;229;66599;-66
2022/01/08 00:07:39;;;;;;;;;;;;;;;27.46;58.74;97110.27;618870;229;64081;-67
2022/01/08 00:10:07;;;;;;;;;;;;;;;27.45;61.30;97108.68;618851;229;61816;-67
2022/01/08 00:12:35;;;;;;;;;;;;;;;27.46;61.28;97112.97;618860;229;66668;-67
2022/01/08 00:15:03;;;;;;;;;;;;;;;27.41;61.00;97111.19;618832;229;66813;-67
2022/01/08 00:17:30;;;;;;;;;;;;;;;27.41;60.25;97108.48;618846;229;65009;-67
2022/01/08 00:19:58;;;;;;;;;;;;;;;27.42;61.43;97112.01;618925;227;66660;-67
2022/01/08 00:22:25;;;;;;;;;;;;;;;27.42;57.11;97110.09;618795;229;66464;-67
2022/01/08 00:24:53;;;;;;;;;;;;;;;27.40;58.38;97108.81;618849;229;66046;-67
2022/01/08 00:27:23;;;;;;;;;;;;;;;27.41;61.51;97107.70;618842;229;63910;-67
2022/01/08 00:29:51;;;;;;;;;;;;;;;27.40;61.09;97106.91;618853;229;64399;-67
2022/01/08 00:32:18;;;;;;;;;;;;;;;27.37;61.50;97114.84;618890;229;65973;-67
2022/01/08 00:34:46;;;;;;;;;;;;;;;27.34;62.17;97113.55;618816;229;66523;-67
2022/01/08 00:37:13;;;;;;;;;;;;;;;27.36;59.32;97108.62;618775;229;66820;-66
2022/01/08 00:39:41;;;;;;;;;;;;;;;27.36;61.26;97105.13;618819;229;62723;-67
2022/01/08 00:42:08;;;;;;;;;;;;;;;27.33;59.88;97105.75;618802;229;64959;-67
2022/01/08 00:44:36;;;;;;;;;;;;;;;27.34;59.11;97091.96;618888;229;64630;-66
2022/01/08 00:47:04;;;;;;;;;;;;;;;27.33;60.26;97089.56;618807;229;62887;-67
2022/01/08 00:49:31;;;;;;;;;;;;;;;27.31;62.23;97087.19;618788;229;66900;-67
2022/01/08 00:51:58;;;;;;;;;;;;;;;27.34;59.09;97085.78;618751;229;66802;-67
2022/01/08 00:54:26;;;;;;;;;;;;;;;27.32;60.36;97087.98;618822;229;65038;-66
2022/01/08 00:56:53;;;;;;;;;;;;;;;27.29;62.61;97089.40;618855;229;66757;-67
2022/01/08 00:59:21;;;;;;;;;;;;;;;27.28;61.53;97093.19;618812;229;66663;-67
2022/01/08 01:01:48;;;;;;;;;;;;;;;27.29;60.71;97089.40;618799;229;65017;-67
2022/01/08 01:04:16;;;;;;;;;;;;;;;27.27;60.08;97086.20;618782;229;64640;-67
2022/01/08 01:06:43;;;;;;;;;;;;;;;27.29;56.04;97091.30;618810;229;64604;-66
2022/01/08 01:09:11;;;;;;;;;;;;;;;27.27;61.74;97085.41;618862;229;63810;-66
2022/01/08 01:11:38;;;;;;;;;;;;;;;27.28;59.65;97081.59;618809;229;66685;-66
2022/01/08 01:14:06;;;;;;;;;;;;;;;27.26;61.39;97083.84;618798;229;66801;-66
2022/01/08 01:16:33;;;;;;;;;;;;;;;27.26;61.57;97073.05;618797;229;65074;-67
2022/01/08 01:19:03;;;;;;;;;;;;;;;27.22;61.85;97073.63;618792;229;66474;-66
2022/01/08 01:21:30;;;;;;;;;;;;;;;27.23;60.22;97075.25;618841;229;66574;-66
2022/01/08 01:24:00;;;;;;;;;;;;;;;27.23;56.90;97071.76;618839;229;65066;-67
2022/01/08 01:26:29;;;;;;;;;;;;;;;27.22;59.57;97065.55;618812;229;64339;-68
2022/01/08 01:42:52;;;;;;;;;;;;;;;27.15;61.95;97035.50;618868;229;66789;-66
2022/01/08 01:47:47;;;;;;;;;;;;;;;27.14;58.33;97023.11;618830;229;65244;-67
2022/01/08 01:50:15;;;;;;;;;;;;;;;27.14;58.67;97023.11;618781;229;66657;-68
2022/01/08 01:52:42;;;;;;;;;;;;;;;27.14;55.72;97030.41;618800;229;66738;-68
2022/01/08 01:55:10;;;;;;;;;;;;;;;27.12;56.48;97025.34;618772;229;65025;-65
2022/01/08 01:57:37;;;;;;;;;;;;;;;27.13;60.35;97023.44;618849;229;67188;-65
2022/01/08 02:00:07;;;;;;;;;;;;;;;27.12;57.78;97009.16;618803;229;66894;-65
2022/01/08 02:02:36;;;;;;;;;;;;;;;27.12;60.69;97013.73;618789;228;43763;-66
2022/01/08 02:05:04;;;;;;;;;;;;;;;27.10;58.74;97016.75;618796;229;64553;-66
2022/01/08 02:07:31;;;;;;;;;;;;;;;27.09;59.41;97015.17;618809;229;66636;-67
2022/01/08 02:09:59;;;;;;;;;;;;;;;27.10;59.54;97011.36;618857;229;63793;-66
2022/01/08 02:12:28;;;;;;;;;;;;;;;27.08;60.10;97010.08;618820;229;64536;-67
2022/01/08 02:14:55;;;;;;;;;;;;;;;27.06;55.38;96999.59;618711;228;64833;-67
2022/01/08 02:17:23;;;;;;;;;;;;;;;27.07;59.24;97000.41;618802;229;62510;-67
2022/01/08 02:19:54;;;;;;;;;;;;;;;27.07;55.50;97001.20;618789;229;64684;-67
2022/01/08 02:22:22;;;;;;;;;;;;;;;27.07;57.90;97011.98;618841;229;64814;-67
2022/01/08 02:24:49;;;;;;;;;;;;;;;27.05;61.15;97006.09;618866;229;62887;-67
2022/01/08 02:27:17;;;;;;;;;;;;;;;27.03;58.16;97000.21;618802;229;64626;-67
2022/01/08 02:29:46;;;;;;;;;;;;;;;27.04;59.90;96995.61;618811;229;64472;-67
2022/01/08 02:32:15;;;;;;;;;;;;;;;27.01;56.15;96999.75;618829;229;65577;-67
2022/01/08 02:34:44;;;;;;;;;;;;;;;27.01;56.33;97002.45;618827;229;64800;-67
2022/01/08 02:37:12;;;;;;;;;;;;;;;27.00;57.23;97006.23;618919;229;66494;-67
2022/01/08 02:39:42;;;;;;;;;;;;;;;26.99;55.71;97005.44;618836;229;65153;-67
2022/01/08 02:42:16;;;;;;;;;;;;;;;27.00;60.49;97011.63;618843;229;64679;-68
2022/01/08 02:44:44;;;;;;;;;;;;;;;26.97;61.66;97006.86;618822;227;65037;-68
2022/01/08 02:47:13;;;;;;;;;;;;;;;26.94;57.13;97005.57;618832;229;62743;-67
2022/01/08 02:49:40;;;;;;;;;;;;;;;26.96;59.08;97005.27;618633;228;66924;-67
2022/01/08 02:52:08;;;;;;;;;;;;;;;26.93;58.66;96997.81;617993;229;67522;-67
2022/01/08 02:54:36;;;;;;;;;;;;;;;26.93;58.04;97005.90;617706;229;65044;-67
2022/01/08 02:57:05;;;;;;;;;;;;;;;26.92;59.63;96996.20;617730;229;65421;-67
2022/01/08 02:59:33;;;;;;;;;;;;;;;26.91;59.59;96991.92;617705;229;66681;-67
2022/01/08 03:02:01;;;;;;;;;;;;;;;26.91;61.00;96991.92;617779;229;62884;-67
2022/01/08 03:04:29;;;;;;;;;;;;;;;26.90;58.99;96985.73;617781;229;64261;-67
2022/01/08 03:06:56;;;;;;;;;;;;;;;26.87;56.73;96982.84;617681;229;64786;-67
2022/01/08 03:09:26;;;;;;;;;;;;;;;26.88;59.49;96989.84;617721;229;65077;-67
2022/01/08 03:11:53;;;;;;;;;;;;;;;26.88;58.98;96984.45;617758;229;64987;-67
2022/01/08 03:14:21;;;;;;;;;;;;;;;26.87;56.34;96974.75;617737;229;66837;-67
2022/01/08 03:16:48;;;;;;;;;;;;;;;26.87;58.87;96980.94;617758;229;65049;-67
2022/01/08 03:19:16;;;;;;;;;;;;;;;26.86;62.41;96992.05;617729;229;66895;-67
2022/01/08 03:21:46;;;;;;;;;;;;;;;26.82;62.78;96989.19;617670;229;66762;-67
2022/01/08 03:24:25;;;;;;;;;;;;;;;26.82;58.27;96989.19;617738;229;65079;-67
2022/01/08 03:26:45;;;;;;;;;;;;;;;26.81;61.34;96981.39;617592;228;64607;-68
2022/01/08 03:29:13;;;;;;;;;;;;;;;26.78;60.27;96983.59;617766;229;64706;-68
2022/01/08 03:31:40;;;;;;;;;;;;;;;26.79;61.07;96997.87;617733;229;62827;-68
2022/01/08 03:34:08;;;;;;;;;;;;;;;26.77;61.53;96995.50;617674;229;64591;-68
2022/01/08 03:36:35;;;;;;;;;;;;;;;26.76;58.70;96990.41;617723;229;66787;-68
2022/01/08 03:39:03;;;;;;;;;;;;;;;26.75;57.26;96992.31;617724;229;65058;-67
2022/01/08 03:41:30;;;;;;;;;;;;;;;26.76;60.66;96988.53;617788;229;66937;-67
2022/01/08 03:43:58;;;;;;;;;;;;;;;26.74;61.32;96988.03;617758;229;66636;-67
2022/01/08 03:46:28;;;;;;;;;;;;;;;26.72;61.04;96995.63;617727;229;64963;-67
2022/01/08 03:51:33;;;;;;;;;;;;;;;26.71;57.91;96985.14;617694;229;66295;-67
2022/01/08 03:54:00;;;;;;;;;;;;;;;26.71;60.51;96983.27;617721;229;64863;-66
2022/01/08 03:56:28;;;;;;;;;;;;;;;26.69;60.49;96990.86;617744;229;66783;-66
2022/01/08 03:58:55;;;;;;;;;;;;;;;26.68;61.61;96975.80;617699;229;66870;-66
2022/01/08 04:01:23;;;;;;;;;;;;;;;26.69;61.11;96979.28;617698;229;66110;-66
2022/01/08 04:03:50;;;;;;;;;;;;;;;26.65;60.99;96975.59;617703;229;64687;-67
2022/01/08 04:06:18;;;;;;;;;;;;;;;26.65;57.73;96979.08;617743;229;65346;-66
2022/01/08 04:08:45;;;;;;;;;;;;;;;26.67;58.89;96978.78;617763;229;63841;-66
2022/01/08 04:11:13;;;;;;;;;;;;;;;26.65;57.50;96968.30;617686;229;66751;-66
2022/01/08 04:13:42;;;;;;;;;;;;;;;26.65;58.56;96973.69;617684;229;66555;-66
2022/01/08 04:16:13;;;;;;;;;;;;;;;26.62;59.64;96974.31;617765;229;64977;-66
2022/01/08 04:18:38;;;;;;;;;;;;;;;26.62;57.48;96968.92;617631;228;64030;-66
2022/01/08 04:23:50;;;;;;;;;;;;;;;26.59;61.68;96958.77;617740;229;62945;-66
2022/01/08 04:26:19;;;;;;;;;;;;;;;26.59;61.15;96963.36;617683;229;64560;-66
2022/01/08 04:28:47;;;;;;;;;;;;;;;26.56;60.97;96965.56;617732;229;66499;-66
2022/01/08 04:31:15;;;;;;;;;;;;;;;26.57;62.42;96969.05;617749;229;65240;-66
2022/01/08 04:33:42;;;;;;;;;;;;;;;26.57;58.71;96966.35;617719;229;66711;-66
2022/01/08 04:36:10;;;;;;;;;;;;;;;26.55;59.54;96971.28;617799;229;66312;-66
2022/01/08 04:38:37;;;;;;;;;;;;;;;26.55;62.29;96963.19;617682;229;62904;-66
2022/01/08 04:41:05;;;;;;;;;;;;;;;26.50;62.08;96965.98;617696;229;64284;-66
2022/01/08 04:43:33;;;;;;;;;;;;;;;26.50;62.60;96964.08;617700;229;64542;-66
2022/01/08 04:46:01;;;;;;;;;;;;;;;26.52;61.71;96958.42;617705;229;65256;-66
2022/01/08 04:48:29;;;;;;;;;;;;;;;26.52;60.96;96961.12;617683;229;64699;-66
2022/01/08 04:50:56;;;;;;;;;;;;;;;26.49;61.62;96961.67;617676;229;64525;-66
2022/01/08 04:53:24;;;;;;;;;;;;;;;26.48;60.70;96965.48;617579;229;62934;-66
2022/01/08 04:55:51;;;;;;;;;;;;;;;26.47;61.63;96963.91;617668;229;64672;-66
2022/01/08 04:58:19;;;;;;;;;;;;;;;26.48;61.64;96966.28;617714;229;64501;-66
2022/01/08 05:00:46;;;;;;;;;;;;;;;26.47;61.68;96966.60;617758;229;62882;-66
2022/01/08 05:03:13;;;;;;;;;;;;;;;26.46;60.57;96957.70;617677;229;65435;-66
2022/01/08 05:05:41;;;;;;;;;;;;;;;26.46;56.48;96960.39;617670;229;64350;-66
2022/01/08 05:08:08;;;;;;;;;;;;;;;26.46;60.38;96960.39;617703;229;65014;-66
2022/01/08 05:10:36;;;;;;;;;;;;;;;26.45;59.69;96952.63;617706;229;66951;-66
2022/01/08 05:13:05;;;;;;;;;;;;;;;26.45;58.92;96947.24;617736;229;64605;-66
2022/01/08 05:15:34;;;;;;;;;;;;;;;26.45;57.87;96952.63;617675;229;64958;-66
2022/01/08 05:18:03;;;;;;;;;;;;;;;26.43;59.77;96961.02;617714;229;66720;-66
2022/01/08 05:20:34;;;;;;;;;;;;;;;26.42;60.69;96953.25;617657;229;66659;-66
2022/01/08 05:23:03;;;;;;;;;;;;;;;26.41;61.19;96957.03;617685;228;64892;-66
2022/01/08 05:25:31;;;;;;;;;;;;;;;26.39;60.58;96959.27;617759;229;64682;-66
2022/01/08 05:27:59;;;;;;;;;;;;;;;26.38;59.09;96954.95;617703;229;64549;-66
2022/01/08 05:30:28;;;;;;;;;;;;;;;26.37;58.87;96959.55;617732;229;63157;-66
2022/01/08 05:32:55;;;;;;;;;;;;;;;26.38;61.64;96960.34;617651;229;66730;-66
2022/01/08 05:35:24;;;;;;;;;;;;;;;26.34;59.61;96963.66;617713;229;66760;-66
2022/01/08 05:37:52;;;;;;;;;;;;;;;26.35;57.53;96962.57;617516;229;65059;-66
2022/01/08 05:40:20;;;;;;;;;;;;;;;26.33;62.28;96954.00;617587;229;67019;-66
2022/01/08 05:42:47;;;;;;;;;;;;;;;26.34;60.77;96958.27;617666;229;64393;-65
2022/01/08 05:45:15;;;;;;;;;;;;;;;26.31;62.98;96958.09;617578;229;62756;-66
2022/01/08 05:47:44;;;;;;;;;;;;;;;26.29;62.05;96950.30;617660;229;64650;-66
2022/01/08 05:50:12;;;;;;;;;;;;;;;26.31;61.94;96948.11;617533;229;66677;-65
2022/01/08 05:52:39;;;;;;;;;;;;;;;26.29;58.41;96953.00;617709;229;65015;-65
2022/01/08 05:55:07;;;;;;;;;;;;;;;26.30;59.23;96951.92;617732;229;66860;-66
2022/01/08 05:57:34;;;;;;;;;;;;;;;26.27;63.48;96943.63;617710;229;66950;-65
2022/01/08 06:00:04;;;;;;;;;;;;;;;26.24;62.42;96947.73;617651;229;65029;-66
2022/01/08 06:02:33;;;;;;;;;;;;;;;26.24;58.86;96945.04;617718;228;44234;-67
2022/01/08 06:05:00;;;;;;;;;;;;;;;26.22;61.46;96946.45;617771;229;64535;-67
2022/01/08 06:07:28;;;;;;;;;;;;;;;26.22;57.20;96939.19;617734;229;62898;-67
2022/01/08 06:09:56;;;;;;;;;;;;;;;26.24;58.88;96942.34;617768;229;65665;-67
2022/01/08 06:12:23;;;;;;;;;;;;;;;26.22;62.52;96936.49;617736;229;66859;-67
2022/01/08 06:14:51;;;;;;;;;;;;;;;26.21;57.45;96940.27;617742;229;62637;-67
2022/01/08 06:17:18;;;;;;;;;;;;;;;26.24;62.61;96942.34;617788;229;64729;-67
2022/01/08 06:19:45;;;;;;;;;;;;;;;26.21;60.82;96934.88;617789;229;64326;-67
2022/01/08 06:22:13;;;;;;;;;;;;;;;26.22;62.73;96938.36;617784;229;62941;-67
2022/01/08 06:24:40;;;;;;;;;;;;;;;26.24;63.20;96942.34;617745;229;64703;-67
2022/01/08 06:27:08;;;;;;;;;;;;;;;26.25;62.87;96943.95;617691;229;64808;-67
2022/01/08 06:29:35;;;;;;;;;;;;;;;26.23;61.71;96948.05;617811;229;64911;-67
2022/01/08 06:32:03;;;;;;;;;;;;;;;26.24;60.85;96923.49;617794;229;66964;-66
2022/01/08 06:34:31;;;;;;;;;;;;;;;26.25;62.95;96937.78;617754;229;66803;-67
2022/01/08 06:36:58;;;;;;;;;;;;;;;26.24;58.41;96928.87;617770;229;65821;-66
2022/01/08 06:39:25;;;;;;;;;;;;;;;26.26;57.90;96932.06;617633;229;66856;-67
2022/01/08 06:41:53;;;;;;;;;;;;;;;26.26;60.04;96932.06;617753;229;65416;-66
2022/01/08 06:44:20;;;;;;;;;;;;;;;26.26;58.58;96934.77;617723;229;63953;-66
2022/01/08 06:46:48;;;;;;;;;;;;;;;26.26;59.42;96929.37;617732;229;66559;-68
2022/01/08 06:49:15;;;;;;;;;;;;;;;26.29;60.45;96931.45;617766;229;66749;-66
2022/01/08 06:51:43;;;;;;;;;;;;;;;26.28;60.07;96923.69;618300;229;65039;-68
2022/01/08 06:54:11;;;;;;;;;;;;;;;26.29;59.62;96899.13;618833;229;65127;-66
2022/01/08 06:56:39;;;;;;;;;;;;;;;26.29;59.07;96922.58;618310;229;64632;-68
2022/01/08 06:59:06;;;;;;;;;;;;;;;26.30;59.86;96926.85;618865;229;62724;-67
2022/01/08 07:01:35;;;;;;;;;;;;;;;26.29;59.50;96925.27;618807;228;64777;-69
2022/01/08 07:04:04;;;;;;;;;;;;;;;26.32;60.30;96932.73;618704;229;64689;-68
2022/01/08 07:06:31;;;;;;;;;;;;;;;26.32;58.80;96930.83;618543;229;65028;-67
2022/01/08 07:09:00;;;;;;;;;;;;;;;26.28;57.06;96926.39;618898;229;64676;-67
2022/01/08 07:11:28;;;;;;;;;;;;;;;26.29;60.70;96931.45;618794;229;66698;-67
2022/01/08 07:13:56;;;;;;;;;;;;;;;26.28;60.32;96932.56;618866;229;65046;-66
2022/01/08 07:16:24;;;;;;;;;;;;;;;26.29;60.24;96925.27;618837;229;64709;-66
2022/01/08 07:18:52;;;;;;;;;;;;;;;26.29;61.20;96926.06;618755;229;66861;-68
2022/01/08 07:21:19;;;;;;;;;;;;;;;26.31;58.90;96923.86;618805;229;62789;-67
2022/01/08 07:23:48;;;;;;;;;;;;;;;26.31;59.50;96921.17;618825;229;65563;-67
2022/01/08 07:26:15;;;;;;;;;;;;;;;26.29;60.43;96917.98;618783;229;66956;-67
2022/01/08 07:28:43;;;;;;;;;;;;;;;26.31;60.57;96912.30;618806;229;65050;-66
2022/01/08 07:31:10;;;;;;;;;;;;;;;26.33;60.51;96910.89;618795;229;66886;-66
2022/01/08 07:33:38;;;;;;;;;;;;;;;26.33;61.16;96910.89;618782;229;66366;-67
2022/01/08 07:36:05;;;;;;;;;;;;;;;26.35;61.61;96916.77;618853;229;65233;-67
2022/01/08 07:38:33;;;;;;;;;;;;;;;26.34;61.91;96907.08;618792;229;66791;-67
2022/01/08 07:41:00;;;;;;;;;;;;;;;26.35;61.22;96905.17;618743;229;67169;-66
2022/01/08 07:43:28;;;;;;;;;;;;;;;26.34;59.73;96914.37;618671;227;65037;-68
2022/01/08 07:45:55;;;;;;;;;;;;;;;26.36;61.91;96914.87;618732;229;66688;-66
2022/01/08 07:48:23;;;;;;;;;;;;;;;26.38;62.52;96918.02;618703;227;66788;-70
2022/01/08 07:50:50;;;;;;;;;;;;;;;26.38;56.88;96918.02;618549;229;62717;-67
2022/01/08 07:53:18;;;;;;;;;;;;;;;26.45;60.75;96920.30;617562;229;66844;-66
2022/01/08 07:55:46;;;;;;;;;;;;;;;26.45;59.28;96921.09;617607;229;64420;-68
2022/01/08 07:58:16;;;;;;;;;;;;;;;26.53;58.71;96922.27;617695;229;62850;-65
2022/01/08 08:00:43;;;;;;;;;;;;;;;26.56;57.93;96919.75;617581;229;64493;-64
2022/01/08 08:03:10;;;;;;;;;;;;;;;26.62;59.52;96915.02;617634;229;66706;-65
2022/01/08 08:05:38;;;;;;;;;;;;;;;26.65;58.85;96917.09;617671;229;64996;-66
2022/01/08 08:08:05;;;;;;;;;;;;;;;26.68;60.85;96912.98;617584;229;66857;-65
2022/01/08 08:10:33;;;;;;;;;;;;;;;26.71;59.65;96912.35;617677;229;65381;-67
2022/01/08 08:13:00;;;;;;;;;;;;;;;26.71;61.26;96910.48;617627;229;63874;-65
2022/01/08 08:15:28;;;;;;;;;;;;;;;26.74;60.06;96906.37;617528;229;64590;-67
2022/01/08 08:17:55;;;;;;;;;;;;;;;26.77;60.97;96906.53;617667;229;64751;-67
2022/01/08 08:20:23;;;;;;;;;;;;;;;26.78;60.36;96900.02;617671;229;62902;-65
2022/01/08 08:22:50;;;;;;;;;;;;;;;26.81;60.57;96897.81;617630;229;67491;-65
2022/01/08 08:25:18;;;;;;;;;;;;;;;26.83;60.31;96901.00;617647;229;67810;-65
2022/01/08 08:27:46;;;;;;;;;;;;;;;26.86;59.47;96894.98;617712;229;64941;-66
2022/01/08 08:30:16;;;;;;;;;;;;;;;26.89;60.05;96899.75;617568;229;66751;-67
2022/01/08 08:32:46;;;;;;;;;;;;;;;26.93;61.25;96895.34;617709;229;66412;-67
2022/01/08 08:35:14;;;;;;;;;;;;;;;26.96;60.35;96894.70;617599;229;65138;-66
2022/01/08 08:37:41;;;;;;;;;;;;;;;26.96;60.94;96889.31;617658;229;66748;-70
2022/01/08 08:40:10;;;;;;;;;;;;;;;26.97;56.58;96891.68;618829;227;66518;-67
2022/01/08 08:42:38;;;;;;;;;;;;;;;26.96;59.00;96886.62;621486;227;65984;-62
2022/01/08 08:45:06;;;;;;;;;;;;;;;27.00;58.66;96890.27;618405;227;66668;-62
2022/01/08 08:47:33;;;;;;;;;;;;;;;27.02;58.55;96877.27;617716;229;66502;-68
2022/01/08 08:50:01;;;;;;;;;;;;;;;26.97;56.65;96872.02;617613;229;65124;-62
2022/01/08 08:52:29;;;;;;;;;;;;;;;26.98;55.10;96871.72;617684;229;66901;-58
2022/01/08 08:54:56;;;;;;;;;;;;;;;27.03;57.44;96868.05;617551;229;66837;-61
2022/01/08 08:57:24;;;;;;;;;;;;;;;27.03;57.71;96870.75;617427;229;64866;-61
2022/01/08 08:59:51;;;;;;;;;;;;;;;27.06;57.26;96870.13;617591;229;66868;-62
2022/01/08 09:02:19;;;;;;;;;;;;;;;27.06;58.19;96859.33;617549;229;66666;-61
2022/01/08 09:04:46;;;;;;;;;;;;;;;27.05;58.96;96860.45;617641;229;65105;-62
2022/01/08 09:07:16;;;;;;;;;;;;;;;27.06;59.13;96864.73;617574;228;44809;-67
2022/01/08 09:09:48;;;;;;;;;;;;;;;27.08;59.09;96856.34;617625;229;66812;-67
2022/01/08 09:12:17;;;;;;;;;;;;;;;27.08;59.29;96850.94;617556;228;65028;-69
2022/01/08 09:14:43;;;;;;;;;;;;;;;27.09;58.73;96850.64;617563;228;66509;-67
2022/01/08 09:17:15;;;;;;;;;;;;;;;27.11;59.97;96851.09;617641;229;64784;-67
2022/01/08 09:19:43;;;;;;;;;;;;;;;27.14;60.20;96849.67;617633;229;65058;-66
2022/01/08 09:22:11;;;;;;;;;;;;;;;27.16;58.34;96842.89;617536;229;67094;-66
2022/01/08 09:24:39;;;;;;;;;;;;;;;27.18;58.74;96837.98;617684;229;66912;-68
2022/01/08 09:27:06;;;;;;;;;;;;;;;27.20;59.20;96843.04;617599;229;65246;-68
2022/01/08 09:29:34;;;;;;;;;;;;;;;27.20;57.81;96840.34;617595;229;67239;-67
2022/01/08 09:32:03;;;;;;;;;;;;;;;27.18;58.52;96837.98;617686;229;66801;-66
2022/01/08 09:34:31;;;;;;;;;;;;;;;27.20;58.04;96826.85;622157;227;65063;-68
2022/01/08 09:36:58;;;;;;;;;;;;;;;27.17;57.84;96832.88;624737;227;66977;-67
2022/01/08 09:39:26;;;;;;;;;;;;;;;27.18;58.48;96824.49;624746;227;66703;-68
2022/01/08 09:41:54;;;;;;;;;;;;;;;27.19;58.17;96825.28;624703;227;64979;-66
2022/01/08 09:44:22;;;;;;;;;;;;;;;27.19;58.26;96820.67;624681;227;64696;-67
2022/01/08 09:46:49;;;;;;;;;;;;;;;27.21;58.23;96817.67;624674;227;64656;-68
2022/01/08 09:49:17;;;;;;;;;;;;;;;27.21;57.95;96815.77;624657;227;62894;-68
2022/01/08 09:51:44;;;;;;;;;;;;;;;27.21;58.15;96810.36;624701;226;64678;-68
2022/01/08 09:54:12;;;;;;;;;;;;;;;27.20;58.00;96814.19;624708;227;64556;-67
2022/01/08 09:56:39;;;;;;;;;;;;;;;27.23;58.47;96810.85;624667;227;62883;-66
2022/01/08 09:59:07;;;;;;;;;;;;;;;27.23;58.24;96813.55;624729;227;64016;-68
2022/01/08 10:01:35;;;;;;;;;;;;;;;27.23;57.27;96812.76;624635;227;64057;-67
2022/01/08 10:04:06;;;;;;;;;;;;;;;27.26;57.76;96804.03;624710;227;62722;-66
2022/01/08 10:06:35;;;;;;;;;;;;;;;27.29;58.25;96813.39;624654;227;64606;-68
2022/01/08 10:09:04;;;;;;;;;;;;;;;27.28;58.16;96812.58;624633;227;66992;-66
2022/01/08 10:11:33;;;;;;;;;;;;;;;27.29;58.01;96803.39;624762;227;62748;-65
2022/01/08 10:14:15;;;;;;;;;;;;;;;27.31;57.98;96803.88;624715;227;66997;-65
2022/01/08 10:19:25;;;;;;;;;;;;;;;27.26;57.44;96797.84;624778;227;65127;-64
2022/01/08 10:21:53;;;;;;;;;;;;;;;27.23;56.07;96797.36;621324;227;66890;-64
2022/01/08 10:24:27;;;;;;;;;;;;;;;27.22;56.95;96793.05;623849;227;66874;-64
2022/01/08 10:27:04;;;;;;;;;;;;;;;27.21;58.42;96780.69;624799;227;43415;-63
2022/01/08 10:29:31;;;;;;;;;;;;;;;27.21;56.97;96785.30;624830;227;66588;-63
2022/01/08 10:31:59;;;;;;;;;;;;;;;27.21;58.62;96779.91;624785;227;66786;-63
2022/01/08 10:34:29;;;;;;;;;;;;;;;27.21;57.46;96783.39;624757;227;65039;-63
2022/01/08 10:36:59;;;;;;;;;;;;;;;27.20;57.69;96776.42;624777;227;64988;-63
2022/01/08 10:39:34;;;;;;;;;;;;;;;27.20;55.98;96781.81;624737;227;64318;-61
2022/01/08 10:42:03;;;;;;;;;;;;;;;27.21;56.35;96783.39;624774;227;65030;-61
2022/01/08 10:44:32;;;;;;;;;;;;;;;27.21;56.01;96780.69;624645;226;64401;-60
2022/01/08 10:47:01;;;;;;;;;;;;;;;27.21;56.02;96777.20;624398;226;64601;-61
2022/01/08 10:49:42;;;;;;;;;;;;;;;27.22;56.30;96776.08;624641;227;65059;-61
2022/01/08 10:52:11;;;;;;;;;;;;;;;27.23;56.63;96778.48;625422;226;64306;-61
2022/01/08 10:54:40;;;;;;;;;;;;;;;27.22;56.30;96776.87;625557;225;64492;-61
2022/01/08 10:57:09;;;;;;;;;;;;;;;27.22;55.65;96771.47;625785;225;62908;-64
2022/01/08 10:59:37;;;;;;;;;;;;;;;27.17;56.08;96768.96;625715;226;66765;-66
2022/01/08 11:02:09;;;;;;;;;;;;;;;27.21;55.89;96766.41;625902;226;66776;-60
2022/01/08 11:04:39;;;;;;;;;;;;;;;27.20;57.67;96757.53;625948;226;64869;-65
2022/01/08 11:07:08;;;;;;;;;;;;;;;27.20;57.98;96757.53;626001;226;64530;-65
2022/01/08 11:09:36;;;;;;;;;;;;;;;27.19;56.13;96750.53;625880;226;64377;-65
2022/01/08 11:12:05;;;;;;;;;;;;;;;27.20;55.62;96741.34;625876;226;65032;-65
2022/01/08 11:17:20;;;;;;;;;;;;;;;27.19;55.23;96744.34;625977;226;66743;-65
2022/01/08 11:19:49;;;;;;;;;;;;;;;27.19;56.94;96742.44;625875;226;65197;-65
2022/01/08 11:22:18;;;;;;;;;;;;;;;27.19;55.90;96734.34;625995;226;66844;-65
2022/01/08 11:24:57;;;;;;;;;;;;;;;27.18;56.58;96732.77;625893;226;67049;-65
2022/01/08 11:27:35;;;;;;;;;;;;;;;27.19;56.01;96728.95;625602;226;65013;-66
2022/01/08 11:30:07;;;;;;;;;;;;;;;27.19;55.61;96734.34;625945;226;66994;-66
2022/01/08 11:32:35;;;;;;;;;;;;;;;27.18;55.35;96724.68;625798;226;64644;-66
2022/01/08 11:35:04;;;;;;;;;;;;;;;27.16;56.82;96724.20;625929;226;65242;-64
2022/01/08 11:37:31;;;;;;;;;;;;;;;27.17;56.28;96711.50;625908;226;64521;-64
2022/01/08 11:40:02;;;;;;;;;;;;;;;27.16;56.66;96718.80;625921;226;64352;-64
2022/01/08 11:42:31;;;;;;;;;;;;;;;27.17;56.80;96720.41;625856;226;65109;-66
2022/01/08 11:45:01;;;;;;;;;;;;;;;27.16;55.96;96712.59;625928;226;66531;-63
2022/01/08 11:47:29;;;;;;;;;;;;;;;27.15;56.35;96706.41;625965;226;64610;-63
2022/01/08 11:49:59;;;;;;;;;;;;;;;27.16;56.13;96713.41;625869;226;64887;-63
2022/01/08 11:52:28;;;;;;;;;;;;;;;27.15;56.71;96698.31;625923;226;67221;-65
2022/01/08 11:54:56;;;;;;;;;;;;;;;27.13;56.38;96705.92;625969;226;66940;-65
2022/01/08 11:57:24;;;;;;;;;;;;;;;27.14;55.70;96696.71;625958;226;63503;-65
2022/01/08 11:59:59;;;;;;;;;;;;;;;27.14;55.11;96694.02;625931;226;67033;-65
2022/01/08 12:02:38;;;;;;;;;;;;;;;27.14;55.64;96685.92;625940;226;64381;-65
2022/01/08 12:05:06;;;;;;;;;;;;;;;27.14;55.90;96688.62;625993;226;65146;-65
2022/01/08 12:07:37;;;;;;;;;;;;;;;27.14;56.03;96677.83;625998;226;64619;-65
2022/01/08 12:10:10;;;;;;;;;;;;;;;27.13;56.69;96678.95;625953;226;66819;-65
2022/01/08 12:12:49;;;;;;;;;;;;;;;27.12;55.88;96673.86;625154;226;65128;-64
2022/01/08 12:15:17;;;;;;;;;;;;;;;27.13;57.92;96675.47;625903;226;66916;-65
2022/01/08 12:17:52;;;;;;;;;;;;;;;27.11;55.95;96673.08;625943;226;66811;-65
2022/01/08 12:20:21;;;;;;;;;;;;;;;27.09;57.35;96664.53;626005;226;62987;-65
2022/01/08 12:22:49;;;;;;;;;;;;;;;27.08;57.78;96662.93;620266;226;64549;-65
2022/01/08 12:25:18;;;;;;;;;;;;;;;27.09;58.03;96666.41;625931;226;64555;-65
2022/01/08 12:27:46;;;;;;;;;;;;;;;27.05;58.43;96660.88;625259;226;65111;-65
2022/01/08 12:30:18;;;;;;;;;;;;;;;27.06;57.87;96662.45;625993;226;64458;-65
2022/01/08 12:32:48;;;;;;;;;;;;;;;27.06;58.48;96661.66;626010;226;64232;-65
2022/01/08 12:35:24;;;;;;;;;;;;;;;27.04;59.01;96667.39;626022;226;65068;-65
2022/01/08 12:38:02;;;;;;;;;;;;;;;27.04;58.68;96663.88;625958;226;64336;-65
2022/01/08 12:40:34;;;;;;;;;;;;;;;27.03;59.35;96662.30;625970;226;67674;-65
2022/01/08 12:43:03;;;;;;;;;;;;;;;27.02;58.95;96653.42;625968;226;65101;-65
2022/01/08 12:45:32;;;;;;;;;;;;;;;27.00;58.28;96652.94;620651;226;64304;-65
2022/01/08 12:48:08;;;;;;;;;;;;;;;27.00;59.57;96651.03;625997;226;64072;-65
2022/01/08 12:50:39;;;;;;;;;;;;;;;26.99;59.88;96638.67;625875;226;64859;-65
2022/01/08 12:53:09;;;;;;;;;;;;;;;26.99;58.42;96638.67;624828;227;66588;-65
2022/01/08 12:55:38;;;;;;;;;;;;;;;26.99;59.28;96643.28;624842;227;64755;-65
2022/01/08 12:58:14;;;;;;;;;;;;;;;26.98;60.85;96639.80;624844;227;63751;-65
2022/01/08 13:00:58;;;;;;;;;;;;;;;26.96;59.94;96628.53;615724;226;64159;-65
2022/01/08 13:03:28;;;;;;;;;;;;;;;26.95;60.32;96631.53;624811;227;64423;-65
2022/01/08 13:05:57;;;;;;;;;;;;;;;26.97;59.93;96634.70;624803;227;65115;-65
2022/01/08 13:08:26;;;;;;;;;;;;;;;26.95;59.88;96631.53;624805;227;67324;-66
2022/01/08 13:11:00;;;;;;;;;;;;;;;26.93;60.53;96631.08;624835;227;64655;-65
2022/01/08 13:13:27;;;;;;;;;;;;;;;26.92;59.14;96621.38;624773;227;65097;-63
2022/01/08 13:15:54;;;;;;;;;;;;;;;26.90;60.33;96619.02;624800;227;64660;-63
2022/01/08 13:18:24;;;;;;;;;;;;;;;26.92;60.38;96618.69;624816;227;64712;-63
2022/01/08 13:21:02;;;;;;;;;;;;;;;26.89;60.99;96622.03;624831;227;65072;-63